createdAt,value
2018-06-30T00:00:37.962Z,24.40
2018-06-30T00:03:09.738Z,24.22
2018-06-30T00:05:41.819Z,24.21
2018-06-30T00:08:14.156Z,24.23
2018-06-30T00:10:45.375Z,24.27
2018-06-30T00:13:19.149Z,24.17
2018-06-30T00:15:53.668Z,24.06
2018-06-30T00:18:25.815Z,24.17
2018-06-30T00:20:58.586Z,24.24
2018-06-30T00:23:33.291Z,24.23
2018-06-30T00:26:05.000Z,24.13
2018-06-30T00:28:37.107Z,24.01
2018-06-30T00:33:54.637Z,23.83
2018-06-30T00:36:26.466Z,23.77
2018-06-30T00:38:57.622Z,23.77
2018-06-30T00:41:28.632Z,23.74
2018-06-30T00:44:01.488Z,23.67
2018-06-30T00:46:34.184Z,23.70
2018-06-30T00:49:04.883Z,23.56
2018-06-30T00:51:52.208Z,23.54
2018-06-30T00:54:26.290Z,23.45
2018-06-30T00:56:58.880Z,23.34
2018-06-30T00:59:34.609Z,23.38
2018-06-30T01:02:12.954Z,23.31
2018-06-30T01:04:43.661Z,23.36
2018-06-30T01:07:43.909Z,23.40
2018-06-30T01:10:22.433Z,23.37
2018-06-30T01:12:54.001Z,23.27
2018-06-30T01:15:25.017Z,23.29
2018-06-30T01:17:56.462Z,23.28
2018-06-30T01:20:27.038Z,23.29
2018-06-30T01:22:58.947Z,23.24
2018-06-30T01:25:30.963Z,23.26
2018-06-30T01:28:01.424Z,23.30
2018-06-30T01:30:32.713Z,23.23
2018-06-30T01:33:05.222Z,23.24
2018-06-30T01:35:36.881Z,23.28
2018-06-30T01:38:07.673Z,23.04
2018-06-30T01:40:40.654Z,23.00
2018-06-30T01:43:12.671Z,22.96
2018-06-30T01:45:43.384Z,22.96
2018-06-30T01:48:16.499Z,22.90
2018-06-30T01:50:48.924Z,22.86
2018-06-30T01:53:20.367Z,22.69
2018-06-30T01:55:52.303Z,22.70
2018-06-30T02:01:01.401Z,22.82
2018-06-30T02:03:32.713Z,22.75
2018-06-30T02:08:45.125Z,22.76
2018-06-30T02:11:15.530Z,22.71
2018-06-30T02:13:46.973Z,22.64
2018-06-30T02:16:21.356Z,22.63
2018-06-30T02:18:51.885Z,22.67
2018-06-30T02:21:22.558Z,22.75
2018-06-30T02:23:53.387Z,22.74
2018-06-30T02:26:24.043Z,22.68
2018-06-30T02:28:54.592Z,22.66
2018-06-30T02:31:25.821Z,22.60
2018-06-30T02:33:56.479Z,22.46
2018-06-30T02:36:28.290Z,22.37
2018-06-30T02:38:59.859Z,22.35
2018-06-30T02:41:33.753Z,22.28
2018-06-30T02:44:07.582Z,22.26
2018-06-30T02:46:40.591Z,22.33
2018-06-30T02:49:13.702Z,22.39
2018-06-30T02:51:46.573Z,22.34
2018-06-30T02:54:18.922Z,22.22
2018-06-30T02:56:50.207Z,22.21
2018-06-30T02:59:21.459Z,22.21
2018-06-30T03:02:01.433Z,22.22
2018-06-30T03:04:32.628Z,22.30
2018-06-30T03:07:09.320Z,22.29
2018-06-30T03:09:43.810Z,22.24
2018-06-30T03:12:18.827Z,22.13
2018-06-30T03:14:49.462Z,22.18
2018-06-30T03:17:31.388Z,22.14
2018-06-30T03:20:05.543Z,22.07
2018-06-30T03:22:36.390Z,21.93
2018-06-30T03:25:09.262Z,21.98
2018-06-30T03:27:41.193Z,21.96
2018-06-30T03:30:27.840Z,21.93
2018-06-30T03:32:58.923Z,21.88
2018-06-30T03:35:36.364Z,21.72
2018-06-30T03:38:08.183Z,21.64
2018-06-30T03:40:44.246Z,21.63
2018-06-30T03:43:15.947Z,21.54
2018-06-30T03:45:46.570Z,21.43
2018-06-30T03:48:24.769Z,21.45
2018-06-30T03:50:55.527Z,20.97
2018-06-30T03:53:26.941Z,21.35
2018-06-30T03:55:59.790Z,21.36
2018-06-30T03:58:31.095Z,21.40
2018-06-30T04:01:03.337Z,21.58
2018-06-30T04:03:40.268Z,21.64
2018-06-30T04:08:51.373Z,22.01
2018-06-30T04:11:23.461Z,22.10
2018-06-30T04:13:56.824Z,22.16
2018-06-30T04:16:29.136Z,22.31
2018-06-30T04:19:05.452Z,22.51
2018-06-30T04:21:36.088Z,22.64
2018-06-30T04:24:07.048Z,22.58
2018-06-30T04:26:37.956Z,22.67
2018-06-30T04:29:09.526Z,22.81
2018-06-30T04:31:40.425Z,22.85
2018-06-30T04:34:12.945Z,22.98
2018-06-30T04:36:50.682Z,23.13
2018-06-30T04:39:21.186Z,23.23
2018-06-30T04:41:52.798Z,23.29
2018-06-30T04:44:24.600Z,23.51
2018-06-30T04:46:56.238Z,23.59
2018-06-30T04:49:35.335Z,23.60
2018-06-30T04:52:06.251Z,23.68
2018-06-30T04:54:43.851Z,23.83
2018-06-30T04:57:15.224Z,24.02
2018-06-30T04:59:45.644Z,24.06
2018-06-30T05:02:16.760Z,24.05
2018-06-30T05:04:47.294Z,23.89
2018-06-30T05:07:17.843Z,24.20
2018-06-30T05:09:48.406Z,24.25
2018-06-30T05:12:18.978Z,24.42
2018-06-30T05:14:49.257Z,24.81
2018-06-30T05:17:20.229Z,24.96
2018-06-30T05:19:50.987Z,25.19
2018-06-30T05:22:21.665Z,25.40
2018-06-30T05:24:55.396Z,25.40
2018-06-30T05:27:28.067Z,25.62
2018-06-30T05:29:59.441Z,25.59
2018-06-30T05:32:32.255Z,25.53
2018-06-30T05:35:02.877Z,25.93
2018-06-30T05:37:35.709Z,26.00
2018-06-30T05:40:08.959Z,26.15
2018-06-30T05:42:42.819Z,26.52
2018-06-30T05:45:16.616Z,26.61
2018-06-30T05:47:48.374Z,26.65
2018-06-30T05:50:20.920Z,26.83
2018-06-30T05:52:52.788Z,27.11
2018-06-30T05:55:26.132Z,27.23
2018-06-30T05:57:58.227Z,27.33
2018-06-30T06:00:31.492Z,27.29
2018-06-30T06:03:02.809Z,27.41
2018-06-30T06:05:33.679Z,27.34
2018-06-30T06:08:05.816Z,27.61
2018-06-30T06:10:40.028Z,28.04
2018-06-30T06:13:11.152Z,28.36
2018-06-30T06:15:42.854Z,28.75
2018-06-30T06:18:13.559Z,28.64
2018-06-30T06:20:43.926Z,28.34
2018-06-30T06:23:14.737Z,28.47
2018-06-30T06:25:45.052Z,28.90
2018-06-30T06:28:17.577Z,29.25
2018-06-30T06:30:53.513Z,29.04
2018-06-30T06:33:25.858Z,29.10
2018-06-30T06:35:56.082Z,29.14
2018-06-30T06:38:27.579Z,29.35
2018-06-30T06:40:58.309Z,29.47
2018-06-30T06:43:31.021Z,29.22
2018-06-30T06:46:02.285Z,29.28
2018-06-30T06:48:42.746Z,29.70
2018-06-30T06:51:17.362Z,29.88
2018-06-30T06:53:50.467Z,29.79
2018-06-30T06:56:21.236Z,30.13
2018-06-30T06:58:53.746Z,30.44
2018-06-30T07:01:26.672Z,30.65
2018-06-30T07:03:57.615Z,30.55
2018-06-30T07:06:30.664Z,30.62
2018-06-30T07:09:02.483Z,30.89
2018-06-30T07:11:33.394Z,30.93
2018-06-30T07:14:08.709Z,31.09
2018-06-30T07:16:44.126Z,31.15
2018-06-30T07:19:17.504Z,31.20
2018-06-30T07:21:48.795Z,31.25
2018-06-30T07:24:32.567Z,31.47
2018-06-30T07:27:06.329Z,31.90
2018-06-30T07:29:39.116Z,32.05
2018-06-30T07:32:14.999Z,32.18
2018-06-30T07:34:49.472Z,32.12
2018-06-30T07:37:23.105Z,32.49
2018-06-30T07:44:18.938Z,32.93
2018-06-30T07:46:52.618Z,34.02
2018-06-30T07:49:24.038Z,33.46
2018-06-30T07:51:54.708Z,32.75
2018-06-30T07:54:25.000Z,33.12
2018-06-30T07:56:56.284Z,33.29
2018-06-30T08:02:06.441Z,33.94
2018-06-30T08:04:37.839Z,34.08
2018-06-30T08:07:08.132Z,34.25
2018-06-30T08:09:39.316Z,34.65
2018-06-30T08:12:14.436Z,34.07
2018-06-30T08:14:50.728Z,34.44
2018-06-30T08:17:22.916Z,34.01
2018-06-30T08:19:53.246Z,33.71
2018-06-30T08:22:26.372Z,33.46
2018-06-30T08:24:56.864Z,33.21
2018-06-30T08:27:29.106Z,33.51
2018-06-30T08:30:00.565Z,34.07
2018-06-30T08:32:37.308Z,34.32
2018-06-30T08:35:14.872Z,34.20
2018-06-30T08:37:47.195Z,34.04
2018-06-30T08:40:18.266Z,34.21
2018-06-30T08:42:51.996Z,33.43
2018-06-30T08:45:23.933Z,34.14
2018-06-30T08:47:54.181Z,34.51
2018-06-30T08:50:25.462Z,34.95
2018-06-30T08:52:56.719Z,35.41
2018-06-30T08:55:28.309Z,35.73
2018-06-30T08:58:00.559Z,35.53
2018-06-30T09:00:32.571Z,35.46
2018-06-30T09:03:03.700Z,35.34
2018-06-30T09:05:36.743Z,35.51
2018-06-30T09:08:10.937Z,35.64
2018-06-30T09:10:46.856Z,35.92
2018-06-30T09:13:18.578Z,35.20
2018-06-30T09:15:52.660Z,34.38
2018-06-30T09:18:26.084Z,35.27
2018-06-30T09:21:01.433Z,35.90
2018-06-30T09:23:34.040Z,36.29
2018-06-30T09:26:06.511Z,36.10
2018-06-30T09:28:39.212Z,35.84
2018-06-30T09:31:16.944Z,35.05
2018-06-30T09:33:48.656Z,34.14
2018-06-30T09:36:19.964Z,33.25
2018-06-30T09:38:52.245Z,33.41
2018-06-30T09:41:23.430Z,33.54
2018-06-30T09:44:05.159Z,34.02
2018-06-30T09:46:36.565Z,33.65
2018-06-30T09:49:07.664Z,32.87
2018-06-30T09:51:44.689Z,32.61
2018-06-30T09:54:15.385Z,32.88
2018-06-30T09:56:46.817Z,32.95
2018-06-30T09:59:24.354Z,33.11
2018-06-30T10:01:56.286Z,33.00
2018-06-30T10:04:29.737Z,32.79
2018-06-30T10:07:00.337Z,33.40
2018-06-30T10:09:33.316Z,33.44
2018-06-30T10:12:04.715Z,33.68
2018-06-30T10:14:37.494Z,33.67
2018-06-30T10:17:09.159Z,33.95
2018-06-30T10:19:41.184Z,33.76
2018-06-30T10:22:13.632Z,33.84
2018-06-30T10:24:47.974Z,33.98
2018-06-30T10:27:19.441Z,34.31
2018-06-30T10:29:53.235Z,34.41
2018-06-30T10:32:27.606Z,34.43
2018-06-30T10:35:06.637Z,34.23
2018-06-30T10:37:43.282Z,33.79
2018-06-30T10:40:18.029Z,34.00
2018-06-30T10:42:54.771Z,33.97
2018-06-30T10:45:27.946Z,34.32
2018-06-30T10:47:59.000Z,34.16
2018-06-30T10:50:31.540Z,34.31
2018-06-30T10:53:04.561Z,34.64
2018-06-30T10:55:52.238Z,34.77
2018-06-30T10:59:00.332Z,34.66
2018-06-30T11:01:33.352Z,34.63
2018-06-30T11:04:04.297Z,34.94
2018-06-30T11:06:38.023Z,35.30
2018-06-30T11:09:12.709Z,34.63
2018-06-30T11:11:43.769Z,33.86
2018-06-30T11:14:21.528Z,34.18
2018-06-30T11:16:53.603Z,34.23
2018-06-30T11:19:28.603Z,33.96
2018-06-30T11:22:03.166Z,34.58
2018-06-30T11:24:35.509Z,34.33
2018-06-30T11:27:07.426Z,34.49
2018-06-30T11:29:42.882Z,34.14
2018-06-30T11:32:15.517Z,34.10
2018-06-30T11:34:54.730Z,34.60
2018-06-30T11:37:27.757Z,34.25
2018-06-30T11:40:03.589Z,34.00
2018-06-30T11:42:38.296Z,34.13
2018-06-30T11:47:48.312Z,34.57
2018-06-30T11:50:22.982Z,34.58
2018-06-30T11:53:01.107Z,34.70
2018-06-30T11:55:53.541Z,34.84
2018-06-30T11:58:28.541Z,34.96
2018-06-30T12:01:05.000Z,35.06
2018-06-30T12:03:37.252Z,34.72
2018-06-30T12:06:09.596Z,34.42
2018-06-30T12:08:50.215Z,35.00
2018-06-30T12:11:23.979Z,35.39
2018-06-30T12:13:58.146Z,35.58
2018-06-30T12:16:36.106Z,35.16
2018-06-30T12:19:18.077Z,35.00
2018-06-30T12:21:49.338Z,35.36
2018-06-30T12:24:23.890Z,35.46
2018-06-30T12:26:59.559Z,35.16
2018-06-30T12:29:31.903Z,35.19
2018-06-30T12:32:04.020Z,35.30
2018-06-30T12:34:36.781Z,35.56
2018-06-30T12:37:07.919Z,35.62
2018-06-30T12:39:39.360Z,35.96
2018-06-30T12:42:09.963Z,35.84
2018-06-30T12:44:41.399Z,35.59
2018-06-30T12:47:24.598Z,35.53
2018-06-30T12:49:56.055Z,35.25
2018-06-30T12:52:26.948Z,35.14
2018-06-30T12:55:01.858Z,34.97
2018-06-30T12:57:36.149Z,35.46
2018-06-30T13:00:10.814Z,35.67
2018-06-30T13:02:51.311Z,34.99
2018-06-30T13:05:25.482Z,35.12
2018-06-30T13:08:06.546Z,35.35
2018-06-30T13:10:37.941Z,35.50
2018-06-30T13:13:12.440Z,35.93
2018-06-30T13:15:44.918Z,36.02
2018-06-30T13:18:21.201Z,36.29
2018-06-30T13:20:58.148Z,36.28
2018-06-30T13:23:34.426Z,36.33
2018-06-30T13:26:07.079Z,36.47
2018-06-30T13:31:13.363Z,36.72
2018-06-30T13:33:44.612Z,36.44
2018-06-30T13:36:16.419Z,36.18
2018-06-30T13:38:47.753Z,35.97
2018-06-30T13:41:19.161Z,35.95
2018-06-30T13:43:51.459Z,35.73
2018-06-30T13:46:24.421Z,35.41
2018-06-30T13:48:56.300Z,35.46
2018-06-30T13:51:27.235Z,35.12
2018-06-30T13:54:00.870Z,35.15
2018-06-30T13:56:33.508Z,35.08
2018-06-30T13:59:06.018Z,35.13
2018-06-30T14:01:46.923Z,35.10
2018-06-30T14:04:18.032Z,35.08
2018-06-30T14:06:49.890Z,34.92
2018-06-30T14:09:21.112Z,34.83
2018-06-30T14:11:53.094Z,34.68
2018-06-30T14:14:27.152Z,34.76
2018-06-30T14:17:01.313Z,35.29
2018-06-30T14:19:36.590Z,35.58
2018-06-30T14:22:08.891Z,35.13
2018-06-30T14:24:54.952Z,34.89
2018-06-30T14:27:25.716Z,34.58
2018-06-30T14:29:56.293Z,34.77
2018-06-30T14:32:27.606Z,34.48
2018-06-30T14:34:58.496Z,34.66
2018-06-30T14:37:29.785Z,34.24
2018-06-30T14:40:03.218Z,34.27
2018-06-30T14:42:35.438Z,34.33
2018-06-30T14:45:20.060Z,34.40
2018-06-30T14:47:52.915Z,34.07
2018-06-30T14:50:28.794Z,34.06
2018-06-30T14:53:03.462Z,33.98
2018-06-30T14:55:43.332Z,33.76
2018-06-30T14:58:19.673Z,33.96
2018-06-30T15:00:55.128Z,33.72
2018-06-30T15:03:27.084Z,33.52
2018-06-30T15:06:07.212Z,33.74
2018-06-30T15:08:45.059Z,33.56
2018-06-30T15:11:19.001Z,33.53
2018-06-30T15:13:59.216Z,33.31
2018-06-30T15:16:29.807Z,33.31
2018-06-30T15:19:06.600Z,33.29
2018-06-30T15:21:38.519Z,33.31
2018-06-30T15:24:11.317Z,33.50
2018-06-30T15:26:42.986Z,33.52
2018-06-30T15:29:15.275Z,33.56
2018-06-30T15:31:48.398Z,33.68
2018-06-30T15:34:22.475Z,33.67
2018-06-30T15:36:52.830Z,33.69
2018-06-30T15:39:23.917Z,33.37
2018-06-30T15:41:54.408Z,33.11
2018-06-30T15:44:26.031Z,32.72
2018-06-30T15:46:59.847Z,32.60
2018-06-30T15:49:32.060Z,32.59
2018-06-30T15:52:03.154Z,32.57
2018-06-30T15:54:34.780Z,32.52
2018-06-30T15:57:05.244Z,32.17
2018-06-30T15:59:36.342Z,31.96
2018-06-30T16:02:08.308Z,32.11
2018-06-30T16:04:44.267Z,32.17
2018-06-30T16:07:15.922Z,31.88
2018-06-30T16:09:46.952Z,31.92
2018-06-30T16:12:31.041Z,31.85
2018-06-30T16:15:13.441Z,31.72
2018-06-30T16:17:44.394Z,31.68
2018-06-30T16:20:14.753Z,31.72
2018-06-30T16:22:46.498Z,31.59
2018-06-30T16:25:16.953Z,31.60
2018-06-30T16:27:52.249Z,31.70
2018-06-30T16:30:23.838Z,31.38
2018-06-30T16:32:55.163Z,31.30
2018-06-30T16:35:30.086Z,31.19
2018-06-30T16:38:02.096Z,31.11
2018-06-30T16:40:32.565Z,30.98
2018-06-30T16:43:06.367Z,31.06
2018-06-30T16:45:39.876Z,31.20
2018-06-30T16:48:11.606Z,31.20
2018-06-30T16:50:42.633Z,31.14
2018-06-30T16:53:13.762Z,31.20
2018-06-30T16:55:46.823Z,31.03
2018-06-30T16:58:25.464Z,30.95
2018-06-30T17:00:58.687Z,30.86
2018-06-30T17:03:31.276Z,30.97
2018-06-30T17:06:03.774Z,30.94
2018-06-30T17:08:35.004Z,30.94
2018-06-30T17:11:14.925Z,31.21
2018-06-30T17:13:46.096Z,31.31
2018-06-30T17:16:19.871Z,31.36
2018-06-30T17:18:52.635Z,31.26
2018-06-30T17:21:24.660Z,30.93
2018-06-30T17:23:55.366Z,30.99
2018-06-30T17:26:25.828Z,30.91
2018-06-30T17:28:58.042Z,30.94
2018-06-30T17:31:34.597Z,31.02
2018-06-30T17:34:05.544Z,31.00
2018-06-30T17:36:36.996Z,30.96
2018-06-30T17:39:15.224Z,30.73
2018-06-30T17:41:50.444Z,30.61
2018-06-30T17:44:22.226Z,30.48
2018-06-30T17:46:53.888Z,30.36
2018-06-30T17:49:27.737Z,30.28
2018-06-30T17:51:58.230Z,30.27
2018-06-30T17:54:29.469Z,30.31
2018-06-30T17:57:02.157Z,30.30
2018-06-30T17:59:33.813Z,30.05
2018-06-30T18:02:09.068Z,30.18
2018-06-30T18:04:41.871Z,30.17
2018-06-30T18:07:13.232Z,30.08
2018-06-30T18:09:45.634Z,29.96
2018-06-30T18:12:16.511Z,29.80
2018-06-30T18:14:50.286Z,29.59
2018-06-30T18:17:21.178Z,29.66
2018-06-30T18:19:53.052Z,29.70
2018-06-30T18:22:24.143Z,29.69
2018-06-30T18:24:54.743Z,29.69
2018-06-30T18:27:26.849Z,29.59
2018-06-30T18:32:43.716Z,29.48
2018-06-30T18:35:15.514Z,29.33
2018-06-30T18:37:46.416Z,29.36
2018-06-30T18:40:19.809Z,29.31
2018-06-30T18:42:50.932Z,29.31
2018-06-30T18:45:22.630Z,29.20
2018-06-30T18:47:55.870Z,29.06
2018-06-30T18:50:53.843Z,29.06
2018-06-30T18:53:29.609Z,29.17
2018-06-30T18:56:00.303Z,29.03
2018-06-30T18:58:33.226Z,28.94
2018-06-30T19:01:06.713Z,28.87
2018-06-30T19:03:39.941Z,28.77
2018-06-30T19:06:12.457Z,28.75
2018-06-30T19:08:42.907Z,28.66
2018-06-30T19:11:13.568Z,28.60
2018-06-30T19:13:46.641Z,28.56
2018-06-30T19:16:19.173Z,28.50
2018-06-30T19:18:53.257Z,28.41
2018-06-30T19:24:09.155Z,28.31
2018-06-30T19:26:45.412Z,28.23
2018-06-30T19:29:18.529Z,28.20
2018-06-30T19:31:51.370Z,28.17
2018-06-30T19:34:23.315Z,28.10
2018-06-30T19:37:02.809Z,28.03
2018-06-30T19:39:43.341Z,27.97
2018-06-30T19:42:14.516Z,27.90
2018-06-30T19:44:54.645Z,27.88
2018-06-30T19:47:27.760Z,27.86
2018-06-30T19:50:14.524Z,27.64
2018-06-30T19:52:45.994Z,27.57
2018-06-30T19:55:21.214Z,27.49
2018-06-30T19:57:54.497Z,27.41
2018-06-30T20:00:36.847Z,27.33
2018-06-30T20:03:14.416Z,27.37
2018-06-30T20:06:02.778Z,27.35
2018-06-30T20:08:36.714Z,27.24
2018-06-30T20:11:09.534Z,27.18
2018-06-30T20:13:41.627Z,27.12
2018-06-30T20:16:15.133Z,27.03
2018-06-30T20:18:46.519Z,26.96
2018-06-30T20:21:22.328Z,26.87
2018-06-30T20:23:55.813Z,26.81
2018-06-30T20:26:27.499Z,26.77
2018-06-30T20:29:00.498Z,26.76
2018-06-30T20:31:32.098Z,26.79
2018-06-30T20:34:06.588Z,26.76
2018-06-30T20:36:39.938Z,26.76
2018-06-30T20:39:13.350Z,26.65
2018-06-30T20:41:46.607Z,26.64
2018-06-30T20:44:26.337Z,26.65
2018-06-30T20:46:57.198Z,26.56
2018-06-30T20:49:32.597Z,26.50
2018-06-30T20:52:10.874Z,26.53
2018-06-30T20:54:44.197Z,26.47
2018-06-30T20:57:26.909Z,26.42
2018-06-30T21:00:16.185Z,26.35
2018-06-30T21:02:52.091Z,26.26
2018-06-30T21:05:26.989Z,26.21
2018-06-30T21:08:00.825Z,26.18
2018-06-30T21:10:37.519Z,26.21
2018-06-30T21:13:12.235Z,26.19
2018-06-30T21:15:44.551Z,26.17
2018-06-30T21:18:27.343Z,26.02
2018-06-30T21:21:04.542Z,25.87
2018-06-30T21:23:48.146Z,25.81
2018-06-30T21:26:20.348Z,25.78
2018-06-30T21:28:54.302Z,25.63
2018-06-30T21:31:28.470Z,25.55
2018-06-30T21:34:12.128Z,25.49
2018-06-30T21:36:49.707Z,25.36
2018-06-30T21:39:27.536Z,25.33
2018-06-30T21:42:04.469Z,25.38
2018-06-30T21:44:39.386Z,25.22
2018-06-30T21:47:14.661Z,25.28
2018-06-30T21:49:51.628Z,25.28
2018-06-30T21:52:22.974Z,25.23
2018-06-30T21:54:56.064Z,25.17
2018-06-30T21:57:29.735Z,25.04
2018-06-30T22:00:07.843Z,24.93
2018-06-30T22:02:42.420Z,24.85
2018-06-30T22:05:21.141Z,24.73
2018-06-30T22:07:54.449Z,24.60
2018-06-30T22:10:28.760Z,24.68
2018-06-30T22:13:03.533Z,24.66
2018-06-30T22:15:45.446Z,24.52
2018-06-30T22:18:16.516Z,24.80
2018-06-30T22:20:47.542Z,24.79
2018-06-30T22:23:19.183Z,24.87
2018-06-30T22:25:51.668Z,24.89
2018-06-30T22:28:40.979Z,24.86
2018-06-30T22:31:14.616Z,24.98
2018-06-30T22:33:52.672Z,24.97
2018-06-30T22:36:27.128Z,24.89
2018-06-30T22:38:58.492Z,24.92
2018-06-30T22:41:29.928Z,25.00
2018-06-30T22:44:02.916Z,25.13
2018-06-30T22:46:38.861Z,25.11
2018-06-30T22:49:12.498Z,25.09
2018-06-30T22:51:44.764Z,25.06
2018-06-30T22:54:19.942Z,24.99
2018-06-30T22:56:54.268Z,24.87
2018-06-30T22:59:26.335Z,24.92
2018-06-30T23:01:57.767Z,24.93
2018-06-30T23:04:29.243Z,24.75
2018-06-30T23:07:01.427Z,24.71
2018-06-30T23:09:32.886Z,24.78
2018-06-30T23:12:10.808Z,24.83
2018-06-30T23:14:42.321Z,24.61
2018-06-30T23:17:14.200Z,24.49
2018-06-30T23:19:44.448Z,24.36
2018-06-30T23:22:15.349Z,24.26
2018-06-30T23:24:47.257Z,24.21
2018-06-30T23:27:18.066Z,24.15
2018-06-30T23:29:49.320Z,24.17
2018-06-30T23:32:20.620Z,24.19
2018-06-30T23:34:52.838Z,24.24
2018-06-30T23:37:24.264Z,24.23
2018-06-30T23:39:56.485Z,24.19
2018-06-30T23:42:28.109Z,24.06
2018-06-30T23:44:58.564Z,24.07
2018-06-30T23:47:31.223Z,24.01
2018-06-30T23:50:03.456Z,23.86
2018-06-30T23:52:35.579Z,23.82
2018-06-30T23:55:08.211Z,23.90
2018-06-30T23:57:40.083Z,23.88
